RJKA(METAR)
05/26 18:00
METAR RJKA 260900Z 18007KT 9999 FEW012 SCT110 BKN150 24/21 Q1008 RMK
1CU012 3AC110 7AC150 A2978=
戻る
トップページへ戻る
IMOC Co,.Ltd.